Time;durP1;ratioP1;P1;durP2;ratioP2;P2;SDS_P1;SDS_P2;PMS_P1;PMS_P2;Temp;Humidity;BMP_temperature;BMP_pressure;BME280_temperature;BME280_humidity;BME280_pressure;Samples;Min_cycle;Max_cycle;Signal;HPM_P1;HPM_P2
2022/07/18 00:01:31;;;;;;;1.70;1.60;;;19.10;60.50;;;;;;4987188;28;20038;-85
2022/07/18 00:03:57;;;;;;;1.52;1.42;;;19.00;60.30;;;;;;5002307;28;20026;-84
2022/07/18 00:06:22;;;;;;;2.38;1.85;;;19.00;60.30;;;;;;4989498;28;20440;-86
2022/07/18 00:08:48;;;;;;;1.73;1.63;;;19.00;60.30;;;;;;4985469;28;20041;-83
2022/07/18 00:11:14;;;;;;;2.08;1.80;;;18.90;60.50;;;;;;5000323;28;20026;-84
2022/07/18 00:13:40;;;;;;;2.65;1.80;;;18.90;60.60;;;;;;5000262;28;20030;-85
2022/07/18 00:16:05;;;;;;;3.28;1.75;;;18.90;60.70;;;;;;4993837;28;20019;-86
2022/07/18 00:18:31;;;;;;;1.92;1.55;;;18.90;60.90;;;;;;4983773;28;20023;-85
2022/07/18 00:20:57;;;;;;;1.77;1.58;;;18.90;60.80;;;;;;4983722;28;20103;-85
2022/07/18 00:23:22;;;;;;;1.70;1.38;;;18.90;61.00;;;;;;4982918;28;20089;-84
2022/07/18 00:25:48;;;;;;;1.60;1.50;;;18.90;61.20;;;;;;4988601;28;20391;-85
2022/07/18 00:28:14;;;;;;;2.40;1.88;;;18.90;61.30;;;;;;5002857;28;20034;-85
2022/07/18 00:30:40;;;;;;;1.50;1.38;;;18.80;61.40;;;;;;5010310;28;20038;-84
2022/07/18 00:33:06;;;;;;;1.60;1.50;;;18.80;61.60;;;;;;4994254;28;20026;-83
2022/07/18 00:35:32;;;;;;;1.45;1.35;;;18.80;61.80;;;;;;4996678;28;20028;-84
2022/07/18 00:37:57;;;;;;;2.22;2.03;;;18.70;62.00;;;;;;4995031;28;20459;-84
2022/07/18 00:40:23;;;;;;;1.98;1.88;;;18.70;62.20;;;;;;5013573;28;20022;-85
2022/07/18 00:42:49;;;;;;;3.22;1.77;;;18.70;62.40;;;;;;4996321;28;20027;-84
2022/07/18 00:45:14;;;;;;;2.15;2.00;;;18.60;62.60;;;;;;4991463;28;20042;-85
2022/07/18 00:47:40;;;;;;;1.90;1.70;;;18.60;62.70;;;;;;5000657;28;20018;-83
2022/07/18 00:50:08;;;;;;;5.57;1.85;;;18.60;62.90;;;;;;5011403;28;20031;-84
2022/07/18 00:52:34;;;;;;;2.05;1.70;;;18.50;63.00;;;;;;4996536;28;20021;-83
2022/07/18 00:55:00;;;;;;;1.83;1.73;;;18.50;63.20;;;;;;5010625;28;20046;-84
2022/07/18 00:57:27;;;;;;;6.38;2.15;;;18.40;63.40;;;;;;5003389;28;20030;-85
2022/07/18 01:02:39;;;;;;;2.00;1.75;;;18.40;63.60;;;;;;5006002;28;20041;-83
2022/07/18 01:05:06;;;;;;;3.60;2.22;;;18.30;63.90;;;;;;5007577;28;20054;-83
2022/07/18 01:07:33;;;;;;;1.73;1.63;;;18.30;63.90;;;;;;4996088;28;20049;-83
2022/07/18 01:09:59;;;;;;;2.60;2.40;;;18.20;64.00;;;;;;5001768;28;20045;-83
2022/07/18 01:12:26;;;;;;;2.80;2.17;;;18.20;64.10;;;;;;4997970;28;20090;-83
2022/07/18 01:14:52;;;;;;;2.50;2.30;;;18.20;64.30;;;;;;4996252;28;20110;-83
2022/07/18 01:17:19;;;;;;;2.78;2.50;;;18.20;64.30;;;;;;4996032;28;20019;-82
2022/07/18 01:19:46;;;;;;;1.83;1.73;;;18.20;64.50;;;;;;4995111;28;20474;-82
2022/07/18 01:22:13;;;;;;;2.25;1.90;;;18.20;64.60;;;;;;4977052;28;20022;-82
2022/07/18 01:24:40;;;;;;;3.45;2.42;;;18.10;64.80;;;;;;4993383;28;20038;-82
2022/07/18 01:27:06;;;;;;;2.47;1.98;;;18.10;65.10;;;;;;4988098;28;20034;-83
2022/07/18 01:29:34;;;;;;;2.65;2.10;;;18.10;65.50;;;;;;4975196;28;20037;-84
2022/07/18 01:32:08;;;;;;;2.28;2.03;;;18.00;65.60;;;;;;4992777;28;20038;-84
2022/07/18 01:34:35;;;;;;;2.58;2.05;;;18.00;65.90;;;;;;4960602;28;20031;-84
2022/07/18 01:37:03;;;;;;;2.20;2.00;;;17.90;66.00;;;;;;4995931;28;20034;-83
2022/07/18 01:39:29;;;;;;;2.13;1.92;;;17.90;66.20;;;;;;4998182;28;20066;-83
2022/07/18 01:42:09;;;;;;;2.17;1.75;;;17.90;66.30;;;;;;5014943;28;20019;-83
2022/07/18 01:44:36;;;;;;;2.95;2.10;;;17.90;66.20;;;;;;5012916;28;20227;-84
2022/07/18 01:47:04;;;;;;;2.30;1.90;;;17.90;66.20;;;;;;5010452;28;20029;-84
2022/07/18 01:49:30;;;;;;;2.95;2.17;;;17.90;66.10;;;;;;4997999;28;20014;-83
2022/07/18 01:51:56;;;;;;;2.20;1.67;;;17.80;65.90;;;;;;4999082;28;20022;-83
2022/07/18 01:54:24;;;;;;;2.10;1.90;;;17.80;66.00;;;;;;5016049;28;20098;-84
2022/07/18 01:56:50;;;;;;;2.70;1.90;;;17.80;66.20;;;;;;4995277;28;20050;-84
2022/07/18 01:59:17;;;;;;;2.22;1.55;;;17.80;66.00;;;;;;4995038;28;20043;-84
2022/07/18 02:01:43;;;;;;;2.20;1.80;;;17.80;66.00;;;;;;4993893;28;20018;-83
2022/07/18 02:04:09;;;;;;;1.70;1.60;;;17.70;66.10;;;;;;4996611;28;20034;-84
2022/07/18 02:06:34;;;;;;;2.28;1.92;;;17.70;66.30;;;;;;4979918;28;20034;-84
2022/07/18 02:09:00;;;;;;;2.72;2.13;;;17.70;66.50;;;;;;5013660;28;20078;-84
2022/07/18 02:11:26;;;;;;;2.55;1.88;;;17.60;66.80;;;;;;5007156;28;20057;-84
2022/07/18 02:13:52;;;;;;;2.70;2.10;;;17.60;67.20;;;;;;5015467;28;20043;-84
2022/07/18 02:16:18;;;;;;;2.75;1.88;;;17.60;67.20;;;;;;5016380;28;20011;-84
2022/07/18 02:18:43;;;;;;;1.77;1.67;;;17.60;67.20;;;;;;5006126;28;20049;-84
2022/07/18 02:21:09;;;;;;;2.30;2.10;;;17.50;67.40;;;;;;5012849;28;20091;-84
2022/07/18 02:23:36;;;;;;;3.53;2.20;;;17.50;67.40;;;;;;5006389;28;20018;-84
2022/07/18 02:26:04;;;;;;;2.65;1.92;;;17.40;67.30;;;;;;5006577;28;20026;-84
2022/07/18 02:28:29;;;;;;;2.13;1.98;;;17.40;67.40;;;;;;5005767;28;20030;-84
2022/07/18 02:30:55;;;;;;;3.15;1.92;;;17.30;67.50;;;;;;5005468;28;20471;-84
2022/07/18 02:33:21;;;;;;;2.00;1.80;;;17.30;67.90;;;;;;5005092;28;20041;-83
2022/07/18 02:35:46;;;;;;;1.92;1.83;;;17.30;68.00;;;;;;5004904;28;20372;-83
2022/07/18 02:38:12;;;;;;;2.50;2.03;;;17.30;68.10;;;;;;5001242;28;20038;-83
2022/07/18 02:40:38;;;;;;;2.03;1.80;;;17.20;68.30;;;;;;4995629;28;20101;-84
2022/07/18 02:43:04;;;;;;;2.00;1.80;;;17.10;68.70;;;;;;5007230;28;20095;-83
2022/07/18 02:45:30;;;;;;;2.67;2.05;;;17.10;68.60;;;;;;5004784;28;20028;-84
2022/07/18 02:47:56;;;;;;;2.20;1.77;;;17.10;68.70;;;;;;5004780;28;20117;-84
2022/07/18 02:50:22;;;;;;;2.35;1.88;;;17.10;69.00;;;;;;4989799;28;20340;-84
2022/07/18 02:52:50;;;;;;;2.20;1.75;;;17.10;69.20;;;;;;4967336;28;20085;-84
2022/07/18 02:55:15;;;;;;;1.63;1.52;;;17.00;69.30;;;;;;4985066;28;20050;-83
2022/07/18 02:57:42;;;;;;;1.55;1.45;;;17.00;69.50;;;;;;4984772;28;20019;-84
2022/07/18 03:00:11;;;;;;;1.90;1.80;;;17.00;69.70;;;;;;4992221;28;20085;-85
2022/07/18 03:02:37;;;;;;;2.13;1.92;;;16.90;69.70;;;;;;4985434;28;20046;-84
2022/07/18 03:05:05;;;;;;;3.60;1.63;;;17.00;69.90;;;;;;4984472;28;20061;-84
2022/07/18 03:07:31;;;;;;;3.47;1.75;;;16.90;70.10;;;;;;4986143;28;20027;-85
2022/07/18 03:09:57;;;;;;;1.73;1.63;;;16.90;70.30;;;;;;4993668;28;20011;-85
2022/07/18 03:12:23;;;;;;;2.08;1.88;;;16.90;70.50;;;;;;5004427;28;20038;-84
2022/07/18 03:14:49;;;;;;;2.38;2.00;;;16.90;70.90;;;;;;5003814;28;20099;-85
2022/07/18 03:17:15;;;;;;;2.00;1.80;;;16.90;71.10;;;;;;5003006;28;20018;-84
2022/07/18 03:19:40;;;;;;;2.53;2.08;;;16.90;71.20;;;;;;5003075;28;20070;-84
2022/07/18 03:22:06;;;;;;;1.70;1.60;;;16.90;71.30;;;;;;4967495;28;20035;-84
2022/07/18 03:24:32;;;;;;;2.08;1.80;;;16.80;71.40;;;;;;4966300;28;20563;-85
2022/07/18 03:26:59;;;;;;;1.70;1.60;;;16.80;71.70;;;;;;4966822;28;20492;-85
2022/07/18 03:29:24;;;;;;;1.73;1.63;;;16.80;71.80;;;;;;4966834;28;20027;-85
2022/07/18 03:31:50;;;;;;;2.95;2.20;;;16.80;71.90;;;;;;4985351;28;20082;-83
2022/07/18 03:34:16;;;;;;;2.45;1.95;;;16.80;72.00;;;;;;4986797;28;20026;-83
2022/07/18 03:36:42;;;;;;;2.33;2.13;;;16.90;72.00;;;;;;4985121;28;20023;-84
2022/07/18 03:39:09;;;;;;;2.92;2.20;;;16.80;71.80;;;;;;4969659;28;20039;-83
2022/07/18 03:41:36;;;;;;;2.17;1.98;;;16.90;71.90;;;;;;5013012;28;20014;-83
2022/07/18 03:44:02;;;;;;;2.85;2.10;;;16.90;72.00;;;;;;5009981;28;20027;-84
2022/07/18 03:46:28;;;;;;;3.53;2.25;;;16.90;71.90;;;;;;5004056;28;20468;-85
2022/07/18 03:48:54;;;;;;;2.55;2.10;;;16.90;72.20;;;;;;5006386;28;20034;-85
2022/07/18 03:51:19;;;;;;;2.10;1.90;;;16.90;72.40;;;;;;4997167;28;20026;-86
2022/07/18 03:53:45;;;;;;;2.35;1.92;;;16.90;72.50;;;;;;4984285;28;20035;-83
2022/07/18 03:56:11;;;;;;;2.60;2.40;;;16.90;72.70;;;;;;4984671;28;20039;-84
2022/07/18 03:58:36;;;;;;;1.90;1.75;;;16.90;72.60;;;;;;4982665;28;20019;-84
2022/07/18 04:01:03;;;;;;;1.85;1.48;;;17.00;72.60;;;;;;4983591;28;20033;-84
2022/07/18 04:03:29;;;;;;;1.85;1.75;;;17.00;72.60;;;;;;4985144;28;20067;-85
2022/07/18 04:05:55;;;;;;;2.75;1.70;;;17.00;72.60;;;;;;4983690;28;20416;-83
2022/07/18 04:08:21;;;;;;;2.13;1.92;;;17.00;72.80;;;;;;4988778;28;20109;-83
2022/07/18 04:10:47;;;;;;;3.83;1.90;;;17.00;73.00;;;;;;5001621;28;20033;-84
2022/07/18 04:13:13;;;;;;;2.40;2.10;;;17.00;73.50;;;;;;5005669;28;20027;-85
2022/07/18 04:15:40;;;;;;;2.67;1.88;;;17.10;73.80;;;;;;5006098;28;20122;-85
2022/07/18 04:18:07;;;;;;;4.90;2.78;;;17.10;73.80;;;;;;4983412;28;20484;-86
2022/07/18 04:20:34;;;;;;;2.90;2.40;;;17.10;74.10;;;;;;4964697;28;20121;-86
2022/07/18 04:23:02;;;;;;;2.47;2.00;;;17.10;74.30;;;;;;4980138;28;20467;-88
2022/07/18 04:25:33;;;;;;;3.58;2.55;;;17.10;74.30;;;;;;4980399;28;20030;-87
2022/07/18 04:27:59;;;;;;;3.80;2.10;;;17.20;74.30;;;;;;4966913;28;20092;-84
2022/07/18 04:30:26;;;;;;;2.80;2.40;;;17.20;74.10;;;;;;4968222;28;20106;-84
2022/07/18 04:32:52;;;;;;;4.68;2.42;;;17.20;74.00;;;;;;5001530;28;20061;-84
2022/07/18 04:35:18;;;;;;;4.05;2.50;;;17.20;73.90;;;;;;5013975;28;20030;-83
2022/07/18 04:37:44;;;;;;;2.60;2.22;;;17.30;73.90;;;;;;5017059;28;20053;-83
2022/07/18 04:40:10;;;;;;;2.55;2.10;;;17.30;73.80;;;;;;5010304;28;20029;-84
2022/07/18 04:42:36;;;;;;;3.97;2.50;;;17.40;73.60;;;;;;5002261;28;20112;-84
2022/07/18 04:45:04;;;;;;;2.30;2.10;;;17.50;73.50;;;;;;4986722;28;20023;-84
2022/07/18 04:47:30;;;;;;;3.50;2.20;;;17.60;73.30;;;;;;4988249;28;20023;-84
2022/07/18 04:49:56;;;;;;;2.88;1.88;;;17.60;73.10;;;;;;4987587;28;20053;-84
2022/07/18 04:52:22;;;;;;;2.15;1.88;;;17.70;72.70;;;;;;4987539;28;20050;-84
2022/07/18 04:54:47;;;;;;;2.72;2.25;;;17.70;72.30;;;;;;4988703;28;20061;-85
2022/07/18 04:57:14;;;;;;;3.08;2.58;;;17.80;72.10;;;;;;5007302;28;20026;-84
2022/07/18 04:59:43;;;;;;;2.75;1.90;;;17.90;71.60;;;;;;5007263;28;20030;-86
2022/07/18 05:02:10;;;;;;;3.90;2.63;;;17.90;71.40;;;;;;5009040;28;20452;-84
2022/07/18 05:04:36;;;;;;;2.00;1.83;;;17.90;71.30;;;;;;4999216;28;20035;-86
2022/07/18 05:07:08;;;;;;;3.78;2.10;;;18.00;71.10;;;;;;4975756;28;20027;-85
2022/07/18 05:09:34;;;;;;;3.63;2.28;;;18.10;70.70;;;;;;4993163;28;20143;-86
2022/07/18 05:12:00;;;;;;;2.80;2.03;;;18.30;70.00;;;;;;5011735;28;20028;-86
2022/07/18 05:14:26;;;;;;;3.17;2.25;;;18.40;69.40;;;;;;4999633;28;20054;-86
2022/07/18 05:16:51;;;;;;;2.17;1.88;;;18.80;69.40;;;;;;4993573;28;20019;-86
2022/07/18 05:19:17;;;;;;;1.75;1.65;;;21.10;67.00;;;;;;4994943;28;20042;-86
2022/07/18 05:21:43;;;;;;;2.60;2.20;;;24.50;59.20;;;;;;4993055;28;20086;-87
2022/07/18 05:24:09;;;;;;;2.67;2.05;;;26.80;53.10;;;;;;4998147;28;20035;-86
2022/07/18 05:26:35;;;;;;;1.67;1.58;;;29.30;49.20;;;;;;4994632;28;20042;-86
2022/07/18 05:29:00;;;;;;;6.68;2.13;;;31.30;45.60;;;;;;5014122;28;20042;-86
2022/07/18 05:31:26;;;;;;;1.70;1.60;;;32.90;43.50;;;;;;4999108;28;20046;-87
2022/07/18 05:33:52;;;;;;;2.17;1.98;;;33.90;40.60;;;;;;5011657;28;20027;-87
2022/07/18 05:36:17;;;;;;;2.33;2.13;;;34.00;39.70;;;;;;5010155;28;20065;-86
2022/07/18 05:38:43;;;;;;;3.28;1.75;;;33.00;39.70;;;;;;5006992;28;20034;-87
2022/07/18 05:41:09;;;;;;;1.85;1.75;;;32.40;40.50;;;;;;5007683;28;20387;-87
2022/07/18 05:43:35;;;;;;;2.38;1.90;;;33.30;40.80;;;;;;4991182;28;20022;-85
2022/07/18 05:46:00;;;;;;;2.00;1.90;;;34.60;39.50;;;;;;4988746;28;20117;-86
2022/07/18 05:48:26;;;;;;;1.92;1.70;;;35.90;38.00;;;;;;4988986;28;20022;-86
2022/07/18 05:50:52;;;;;;;1.70;1.60;;;36.40;37.10;;;;;;5006562;28;20053;-86
2022/07/18 05:53:18;;;;;;;1.80;1.70;;;36.90;36.50;;;;;;5007965;28;20110;-86
2022/07/18 05:55:43;;;;;;;1.80;1.70;;;37.10;35.90;;;;;;5004810;28;20038;-86
2022/07/18 05:58:09;;;;;;;2.20;2.10;;;37.30;35.60;;;;;;4988191;28;20474;-86
2022/07/18 06:00:35;;;;;;;3.67;2.40;;;37.40;35.40;;;;;;5004928;28;20034;-85
2022/07/18 06:03:00;;;;;;;2.20;2.00;;;37.60;35.10;;;;;;5009928;28;20033;-83
2022/07/18 06:05:26;;;;;;;2.13;2.03;;;38.30;35.10;;;;;;5007243;28;20065;-86
2022/07/18 06:07:56;;;;;;;1.98;1.88;;;38.80;34.20;;;;;;5020087;28;20061;-88
2022/07/18 06:10:24;;;;;;;2.00;1.90;;;39.10;33.90;;;;;;5020479;28;20019;-86
2022/07/18 06:12:50;;;;;;;2.88;2.00;;;39.40;33.80;;;;;;5000531;28;20053;-86
2022/07/18 06:15:15;;;;;;;1.92;1.70;;;39.30;33.30;;;;;;5019540;28;20082;-86
2022/07/18 06:17:42;;;;;;;1.73;1.63;;;39.40;33.00;;;;;;5003039;28;20034;-86
2022/07/18 06:20:08;;;;;;;1.70;1.60;;;39.40;32.90;;;;;;5020676;28;20026;-86
2022/07/18 06:22:34;;;;;;;1.77;1.67;;;39.40;33.10;;;;;;5003524;28;20038;-87
2022/07/18 06:25:01;;;;;;;2.13;1.90;;;39.40;32.80;;;;;;5019912;28;20116;-82
2022/07/18 06:27:26;;;;;;;1.80;1.70;;;39.40;32.80;;;;;;4999860;28;20041;-84
2022/07/18 06:29:52;;;;;;;2.28;1.75;;;39.50;32.70;;;;;;5013999;28;20035;-85
2022/07/18 06:32:18;;;;;;;1.90;1.70;;;39.60;32.60;;;;;;4992858;28;20038;-83
2022/07/18 06:34:43;;;;;;;1.80;1.70;;;39.90;32.70;;;;;;5007422;28;20518;-85
2022/07/18 06:37:09;;;;;;;2.15;1.95;;;39.90;33.00;;;;;;4990611;28;20494;-84
2022/07/18 06:39:35;;;;;;;4.05;2.15;;;39.90;32.30;;;;;;5007358;28;20029;-84
2022/07/18 06:42:29;;;;;;;2.13;1.92;;;40.30;32.00;;;;;;5007025;28;20541;-85
2022/07/18 06:48:01;;;;;;;2.45;2.13;;;40.70;31.30;;;;;;5007818;28;20045;-86
2022/07/18 06:50:26;;;;;;;4.20;2.60;;;40.20;30.50;;;;;;4989975;28;20038;-83
2022/07/18 06:52:52;;;;;;;2.58;2.38;;;39.20;31.00;;;;;;5007465;28;20057;-83
2022/07/18 06:55:19;;;;;;;2.60;2.28;;;38.80;31.60;;;;;;5006981;28;20054;-83
2022/07/18 06:57:45;;;;;;;3.58;2.72;;;39.00;31.90;;;;;;4988256;28;20022;-83
2022/07/18 07:00:14;;;;;;;2.40;2.17;;;38.90;31.60;;;;;;5007726;28;20025;-83
2022/07/18 07:02:43;;;;;;;2.05;1.95;;;38.90;31.80;;;;;;5008359;28;20026;-83
2022/07/18 07:05:09;;;;;;;2.08;1.77;;;39.40;31.70;;;;;;4989689;28;20050;-83
2022/07/18 07:07:36;;;;;;;6.32;2.65;;;39.60;31.30;;;;;;5008085;28;20015;-84
2022/07/18 07:10:02;;;;;;;2.92;2.60;;;39.60;30.10;;;;;;5009145;28;20022;-83
2022/07/18 07:12:27;;;;;;;3.92;2.35;;;39.00;31.10;;;;;;5007845;28;20033;-83
2022/07/18 07:14:53;;;;;;;2.55;2.10;;;38.60;30.80;;;;;;5008157;28;20105;-84
2022/07/18 07:17:19;;;;;;;2.25;2.05;;;37.80;31.50;;;;;;5006525;28;20023;-83
2022/07/18 07:19:44;;;;;;;3.42;2.22;;;36.30;31.50;;;;;;5014275;28;20019;-83
2022/07/18 07:22:10;;;;;;;3.58;1.80;;;33.50;33.30;;;;;;5013173;28;20093;-83
2022/07/18 07:24:38;;;;;;;2.45;2.25;;;30.90;35.70;;;;;;5007661;28;20018;-83
2022/07/18 07:27:04;;;;;;;6.15;2.55;;;29.00;38.20;;;;;;5030525;23;20066;-82
2022/07/18 07:29:29;;;;;;;5.95;2.90;;;27.60;41.20;;;;;;4993630;28;20031;-82
2022/07/18 07:31:55;;;;;;;3.17;2.65;;;26.50;43.40;;;;;;5009895;28;20022;-82
2022/07/18 07:34:21;;;;;;;3.03;2.75;;;25.60;44.80;;;;;;5010430;28;20018;-82
2022/07/18 07:36:47;;;;;;;3.22;2.15;;;25.00;45.50;;;;;;5013984;28;20046;-83
2022/07/18 07:39:13;;;;;;;4.35;2.00;;;24.60;46.10;;;;;;5006821;28;20022;-81
2022/07/18 07:41:38;;;;;;;3.70;2.00;;;24.40;46.10;;;;;;4998437;28;20031;-83
2022/07/18 07:44:04;;;;;;;2.08;1.70;;;24.40;45.90;;;;;;4998042;28;20035;-80
2022/07/18 07:46:30;;;;;;;2.22;2.03;;;24.30;45.70;;;;;;4998729;28;20031;-81
2022/07/18 07:48:55;;;;;;;3.67;1.90;;;24.30;45.50;;;;;;4998462;28;20015;-82
2022/07/18 07:51:21;;;;;;;2.15;1.50;;;24.30;45.90;;;;;;4998175;28;20087;-82
2022/07/18 07:53:47;;;;;;;3.30;2.08;;;24.20;46.00;;;;;;4981485;28;20027;-82
2022/07/18 07:56:12;;;;;;;2.08;1.80;;;24.20;46.10;;;;;;4997927;28;20027;-82
2022/07/18 07:58:38;;;;;;;2.47;1.63;;;24.30;46.30;;;;;;4994223;28;20034;-82
2022/07/18 08:01:04;;;;;;;2.38;1.73;;;24.40;46.20;;;;;;4984172;28;20038;-82
2022/07/18 08:03:30;;;;;;;1.90;1.58;;;24.40;45.70;;;;;;4988930;28;20102;-82
2022/07/18 08:05:56;;;;;;;1.60;1.50;;;24.50;45.60;;;;;;4974336;28;20053;-82
2022/07/18 08:08:22;;;;;;;2.67;1.92;;;24.60;45.40;;;;;;4974486;28;20027;-81
2022/07/18 08:10:48;;;;;;;2.20;1.55;;;24.60;45.10;;;;;;4994012;28;20015;-81
2022/07/18 08:13:14;;;;;;;2.85;1.55;;;24.70;44.40;;;;;;4986041;28;20034;-82
2022/07/18 08:15:39;;;;;;;5.47;1.80;;;24.70;44.00;;;;;;4981741;28;20030;-83
2022/07/18 08:18:05;;;;;;;1.80;1.60;;;24.80;43.40;;;;;;4980299;28;20475;-80
2022/07/18 08:20:33;;;;;;;3.60;1.60;;;24.80;42.90;;;;;;4979817;28;20031;-82
2022/07/18 08:23:07;;;;;;;2.17;1.50;;;24.90;43.00;;;;;;4978548;28;20027;-82
2022/07/18 08:25:35;;;;;;;2.63;1.67;;;25.00;42.90;;;;;;4982262;28;20062;-82
2022/07/18 08:28:02;;;;;;;2.90;1.70;;;25.10;41.10;;;;;;4982173;28;20081;-82
2022/07/18 08:30:29;;;;;;;1.30;1.20;;;25.20;41.70;;;;;;4991095;28;20031;-82
2022/07/18 08:32:55;;;;;;;2.58;1.90;;;25.30;41.50;;;;;;5001954;28;20403;-83
2022/07/18 08:35:21;;;;;;;3.25;1.63;;;25.40;40.90;;;;;;5003373;28;20096;-83
2022/07/18 08:37:46;;;;;;;2.13;1.55;;;25.60;41.00;;;;;;4995193;28;20082;-82
2022/07/18 08:40:12;;;;;;;1.63;1.27;;;25.60;41.10;;;;;;4989468;28;20018;-82
2022/07/18 08:42:39;;;;;;;1.73;1.63;;;25.80;41.30;;;;;;4987636;28;20034;-82
2022/07/18 08:45:05;;;;;;;1.80;1.70;;;25.90;40.70;;;;;;5013142;28;20026;-82
2022/07/18 08:47:32;;;;;;;2.60;1.60;;;26.00;40.40;;;;;;4997414;28;20057;-80
2022/07/18 08:49:59;;;;;;;2.58;1.50;;;26.10;40.70;;;;;;5015277;28;20023;-82
2022/07/18 08:52:26;;;;;;;2.47;1.35;;;26.30;40.00;;;;;;5015578;28;20027;-80
2022/07/18 08:54:52;;;;;;;1.85;1.50;;;26.30;39.00;;;;;;5013858;28;20049;-81
2022/07/18 08:57:18;;;;;;;2.97;1.08;;;26.30;39.50;;;;;;5001846;28;20026;-82
2022/07/18 08:59:44;;;;;;;2.40;1.42;;;26.40;39.00;;;;;;5001308;28;20030;-82
2022/07/18 09:02:48;;;;;;;2.85;1.30;;;26.50;39.20;;;;;;4971369;28;20078;-83
2022/07/18 09:05:19;;;;;;;2.78;1.25;;;26.70;39.90;;;;;;4980278;28;20019;-83
2022/07/18 09:07:44;;;;;;;3.43;1.30;;;26.80;39.90;;;;;;4982495;28;20082;-82
2022/07/18 09:10:10;;;;;;;3.55;1.52;;;26.90;39.10;;;;;;4963040;28;20089;-82
2022/07/18 09:12:36;;;;;;;1.83;1.73;;;27.00;37.90;;;;;;4995152;28;20045;-81
2022/07/18 09:15:10;;;;;;;1.35;1.15;;;27.20;37.00;;;;;;4991908;28;20034;-81
2022/07/18 09:17:36;;;;;;;3.58;1.40;;;27.40;36.80;;;;;;4981925;28;20023;-82
2022/07/18 09:20:14;;;;;;;2.70;1.20;;;27.60;36.00;;;;;;4983795;28;20191;-82
2022/07/18 09:22:41;;;;;;;4.63;1.50;;;27.80;36.30;;;;;;4983077;28;20038;-82
2022/07/18 09:25:12;;;;;;;2.45;1.45;;;27.80;36.00;;;;;;4989347;28;20027;-81
2022/07/18 09:27:50;;;;;;;4.57;1.20;;;27.90;36.00;;;;;;4982648;28;20110;-81
2022/07/18 09:30:36;;;;;;;2.67;1.40;;;27.90;35.20;;;;;;4982823;28;20042;-82
2022/07/18 09:33:02;;;;;;;3.53;1.70;;;27.80;35.80;;;;;;4970042;28;20039;-82
2022/07/18 09:35:29;;;;;;;2.08;1.20;;;28.00;36.60;;;;;;4962731;28;20077;-82
2022/07/18 09:38:00;;;;;;;1.30;1.20;;;28.00;34.20;;;;;;4986473;28;20191;-81
2022/07/18 09:40:29;;;;;;;1.08;1.08;;;28.00;34.70;;;;;;4984546;28;20019;-82
2022/07/18 09:42:58;;;;;;;2.13;1.40;;;28.20;35.10;;;;;;4984739;28;20128;-81
2022/07/18 09:45:34;;;;;;;1.65;1.33;;;28.40;35.60;;;;;;4983685;28;20086;-81
2022/07/18 09:48:09;;;;;;;1.60;1.10;;;28.40;33.10;;;;;;4990244;28;20050;-81
2022/07/18 09:50:36;;;;;;;1.92;1.63;;;28.30;32.70;;;;;;4992076;28;20030;-81
2022/07/18 09:53:05;;;;;;;1.40;1.30;;;28.30;33.30;;;;;;4995282;28;20030;-81
2022/07/18 09:55:33;;;;;;;1.15;1.05;;;28.40;33.50;;;;;;5007574;28;20034;-80
2022/07/18 09:58:08;;;;;;;1.13;1.10;;;28.50;33.90;;;;;;5001631;28;20031;-81
2022/07/18 10:00:36;;;;;;;1.98;1.33;;;28.60;32.40;;;;;;5003887;28;20023;-81
2022/07/18 10:03:05;;;;;;;2.10;1.40;;;28.60;33.10;;;;;;4995090;28;20038;-82
2022/07/18 10:05:33;;;;;;;1.65;1.50;;;28.80;33.20;;;;;;5011554;28;20023;-82
2022/07/18 10:08:05;;;;;;;4.20;1.58;;;28.90;33.60;;;;;;5014158;28;20046;-80
2022/07/18 10:10:31;;;;;;;1.30;1.15;;;28.80;32.50;;;;;;4987342;28;20043;-80
2022/07/18 10:12:59;;;;;;;1.48;1.38;;;28.70;32.80;;;;;;4976283;28;20213;-82
2022/07/18 10:15:28;;;;;;;1.45;1.35;;;28.90;34.40;;;;;;5011712;28;20047;-81
2022/07/18 10:17:55;;;;;;;1.40;1.30;;;29.00;33.80;;;;;;5013954;28;20073;-82
2022/07/18 10:20:33;;;;;;;1.23;1.23;;;29.20;33.60;;;;;;4986512;28;20034;-81
2022/07/18 10:23:10;;;;;;;1.38;1.27;;;29.30;33.60;;;;;;5003177;28;20041;-83
2022/07/18 10:25:37;;;;;;;3.10;1.50;;;29.40;33.90;;;;;;4986228;28;20403;-81
2022/07/18 10:28:13;;;;;;;3.95;1.70;;;29.50;32.40;;;;;;4966572;28;20038;-81
2022/07/18 10:30:43;;;;;;;3.28;1.17;;;29.50;32.20;;;;;;4983296;28;20059;-81
2022/07/18 10:33:45;;;;;;;3.05;1.45;;;29.60;33.80;;;;;;4982944;28;20424;-82
2022/07/18 10:36:14;;;;;;;1.60;1.20;;;29.60;32.90;;;;;;4964858;29;20027;-82
2022/07/18 10:39:02;;;;;;;3.60;1.50;;;29.50;32.40;;;;;;4977293;28;20019;-80
2022/07/18 10:41:28;;;;;;;4.53;1.60;;;29.40;33.40;;;;;;4960911;28;20023;-80
2022/07/18 10:43:54;;;;;;;2.85;1.40;;;29.50;32.90;;;;;;4960225;28;20098;-80
2022/07/18 10:46:19;;;;;;;4.90;1.60;;;29.50;33.00;;;;;;4964387;28;20049;-79
2022/07/18 10:48:56;;;;;;;2.50;1.20;;;29.60;32.60;;;;;;4969095;28;20054;-81
2022/07/18 10:51:30;;;;;;;1.33;1.23;;;29.80;33.10;;;;;;4986837;28;20441;-81
2022/07/18 10:53:56;;;;;;;1.92;1.45;;;30.10;32.80;;;;;;4971240;28;20062;-81
2022/07/18 10:56:28;;;;;;;2.42;1.30;;;30.20;32.10;;;;;;4990500;28;20023;-81
2022/07/18 10:58:57;;;;;;;;;;;30.40;33.40;;;;;;4984343;28;20073;-82
2022/07/18 11:01:24;;;;;;;2.72;1.77;;;30.40;32.80;;;;;;4969055;28;19906;-82
2022/07/18 11:03:50;;;;;;;1.63;1.52;;;30.40;33.30;;;;;;4987015;28;20122;-81
2022/07/18 11:06:16;;;;;;;1.23;1.15;;;30.40;32.50;;;;;;4983467;28;20023;-81
2022/07/18 11:08:42;;;;;;;1.77;1.48;;;30.50;33.00;;;;;;4985176;28;20053;-82
2022/07/18 11:11:12;;;;;;;1.63;1.40;;;30.50;33.10;;;;;;4983706;28;20031;-82
2022/07/18 11:13:41;;;;;;;2.53;1.45;;;30.40;33.60;;;;;;4970767;28;20040;-82
2022/07/18 11:16:27;;;;;;;1.63;1.33;;;30.30;33.30;;;;;;4974663;28;20027;-82
2022/07/18 11:18:56;;;;;;;1.50;1.20;;;30.30;32.80;;;;;;4969799;28;20050;-82
2022/07/18 11:21:33;;;;;;;1.77;1.20;;;30.50;32.80;;;;;;4984412;28;20689;-82
2022/07/18 11:24:07;;;;;;;1.95;1.40;;;30.70;32.10;;;;;;4985060;28;20126;-81
2022/07/18 11:26:34;;;;;;;1.70;1.60;;;30.80;31.60;;;;;;4992598;28;20028;-82
2022/07/18 11:29:04;;;;;;;2.08;1.50;;;30.80;32.00;;;;;;5001325;28;20459;-83
2022/07/18 11:31:31;;;;;;;1.73;1.20;;;30.80;31.60;;;;;;5004875;28;20491;-83
2022/07/18 11:34:00;;;;;;;1.20;1.20;;;30.90;31.50;;;;;;5003622;28;20027;-83
2022/07/18 11:36:31;;;;;;;1.20;1.10;;;30.90;31.20;;;;;;5002080;28;20026;-82
2022/07/18 11:39:03;;;;;;;1.42;1.33;;;31.10;32.40;;;;;;4984320;28;20029;-82
2022/07/18 11:41:29;;;;;;;2.03;1.48;;;31.20;32.50;;;;;;5005856;28;20023;-81
2022/07/18 11:43:56;;;;;;;1.10;1.10;;;31.40;32.60;;;;;;4980980;28;20022;-81
2022/07/18 11:46:26;;;;;;;2.17;1.17;;;31.30;32.50;;;;;;4997414;28;20086;-80
2022/07/18 11:49:00;;;;;;;1.88;1.50;;;31.20;31.90;;;;;;4959657;29;20034;-83
2022/07/18 11:51:38;;;;;;;2.33;1.48;;;31.00;32.40;;;;;;4946981;29;20034;-80
2022/07/18 11:54:07;;;;;;;3.85;1.30;;;30.90;32.60;;;;;;4965944;29;20052;-82
2022/07/18 11:56:46;;;;;;;2.97;1.58;;;31.00;33.00;;;;;;4964724;28;20023;-82
2022/07/18 11:59:11;;;;;;;4.85;1.92;;;31.00;32.80;;;;;;4973279;28;20119;-81
2022/07/18 12:01:37;;;;;;;5.82;1.85;;;30.90;32.60;;;;;;4978200;28;20087;-81
2022/07/18 12:04:03;;;;;;;7.00;1.70;;;31.00;32.70;;;;;;4978011;28;20043;-81
2022/07/18 12:06:29;;;;;;;3.42;1.60;;;31.10;32.90;;;;;;4977312;28;20023;-80
2022/07/18 12:09:00;;;;;;;1.60;1.20;;;31.20;32.90;;;;;;5012344;28;20057;-81
2022/07/18 12:11:34;;;;;;;3.33;1.80;;;31.50;32.50;;;;;;4999724;28;20054;-81
2022/07/18 12:14:01;;;;;;;1.27;1.13;;;31.50;32.10;;;;;;4979663;28;20047;-82
2022/07/18 12:16:39;;;;;;;3.42;1.80;;;31.30;32.50;;;;;;4994789;28;20086;-82
2022/07/18 12:19:17;;;;;;;2.95;1.70;;;31.40;32.70;;;;;;4968231;28;20031;-82
2022/07/18 12:21:53;;;;;;;3.00;2.08;;;31.30;32.40;;;;;;4982450;28;20049;-82
2022/07/18 12:24:24;;;;;;;1.73;1.30;;;31.40;33.00;;;;;;4963585;28;20015;-82
2022/07/18 12:27:07;;;;;;;4.50;1.33;;;31.50;32.60;;;;;;4977444;28;20014;-82
2022/07/18 12:30:04;;;;;;;5.13;1.55;;;31.70;32.30;;;;;;4981180;28;20045;-81
2022/07/18 12:32:37;;;;;;;1.27;1.20;;;31.50;31.50;;;;;;4963474;28;20023;-82
2022/07/18 12:35:05;;;;;;;1.50;1.27;;;31.20;32.10;;;;;;4982279;28;20058;-82
2022/07/18 12:37:31;;;;;;;2.67;1.42;;;31.20;32.30;;;;;;4983123;28;20066;-81
2022/07/18 12:39:58;;;;;;;2.25;1.30;;;31.20;32.50;;;;;;4979948;28;20034;-81
2022/07/18 12:42:36;;;;;;;3.95;1.50;;;31.20;32.50;;;;;;4984173;28;20023;-83
2022/07/18 12:45:03;;;;;;;1.42;1.30;;;31.20;32.90;;;;;;4964133;28;20365;-83
2022/07/18 12:47:29;;;;;;;1.48;1.17;;;31.30;32.30;;;;;;4966572;28;20035;-82
2022/07/18 12:49:55;;;;;;;5.00;1.40;;;31.50;33.10;;;;;;4988297;28;20038;-82
2022/07/18 12:52:21;;;;;;;5.43;1.73;;;31.70;32.70;;;;;;4963816;28;20061;-83
2022/07/18 12:54:47;;;;;;;1.50;1.40;;;31.80;31.50;;;;;;4985808;28;20023;-83
2022/07/18 12:57:13;;;;;;;2.47;1.25;;;31.80;31.70;;;;;;4965195;28;20022;-82